Metar z pełnej godziny Komunikat METAR ze strony awiacja.imgw.pl Metar G00 EPBY METAR EPBY 070100Z 26008KT 9999 -RA OVC003 02/01 Q1008=